createdAt,value
2019-03-12T00:02:47.976Z,58.00
2019-03-12T00:05:16.563Z,58.10
2019-03-12T00:07:45.200Z,58.10
2019-03-12T00:10:14.082Z,58.20
2019-03-12T00:13:02.003Z,58.10
2019-03-12T00:15:30.815Z,58.20
2019-03-12T00:17:59.440Z,58.10
2019-03-12T00:20:28.260Z,58.20
2019-03-12T00:22:56.972Z,58.30
2019-03-12T00:25:25.569Z,58.40
2019-03-12T00:27:54.185Z,58.40
2019-03-12T00:30:22.827Z,58.30
2019-03-12T00:32:51.423Z,58.30
2019-03-12T00:38:06.677Z,58.40
2019-03-12T00:40:47.241Z,58.20
2019-03-12T00:46:27.950Z,58.50
2019-03-12T00:49:15.844Z,58.50
2019-03-12T00:51:44.498Z,58.40
2019-03-12T00:54:32.388Z,58.30
2019-03-12T00:57:20.327Z,58.40
2019-03-12T01:02:55.906Z,57.90
2019-03-12T01:05:43.875Z,58.20
2019-03-12T01:08:31.820Z,58.20
2019-03-12T01:11:19.699Z,58.20
2019-03-12T01:14:07.641Z,58.20
2019-03-12T01:16:55.536Z,58.20
2019-03-12T01:19:24.164Z,58.10
2019-03-12T01:22:12.065Z,58.10
2019-03-12T01:24:40.770Z,58.10
2019-03-12T01:27:09.335Z,58.00
2019-03-12T01:29:37.903Z,57.90
2019-03-12T01:32:25.913Z,58.00
2019-03-12T01:35:15.434Z,57.90
2019-03-12T01:37:44.034Z,57.90
2019-03-12T01:40:24.467Z,57.90
2019-03-12T01:42:53.358Z,57.90
2019-03-12T01:45:22.188Z,57.90
2019-03-12T01:48:10.180Z,57.90
2019-03-12T01:50:58.137Z,57.90
2019-03-12T01:53:26.704Z,58.00
2019-03-12T01:56:14.629Z,58.00
2019-03-12T01:59:02.567Z,58.00
2019-03-12T02:01:50.451Z,58.00
2019-03-12T02:04:38.405Z,58.00
2019-03-12T02:07:07.052Z,58.00
2019-03-12T02:09:55.110Z,57.90
2019-03-12T02:12:24.099Z,57.90
2019-03-12T02:17:40.740Z,57.90
2019-03-12T02:20:28.717Z,57.90
2019-03-12T02:22:57.479Z,57.90
2019-03-12T02:25:26.388Z,57.90
2019-03-12T02:28:14.327Z,57.90
2019-03-12T02:31:02.494Z,57.90
2019-03-12T02:33:50.875Z,57.90
2019-03-12T02:36:20.112Z,57.90
2019-03-12T02:39:08.553Z,57.90
2019-03-12T02:41:37.698Z,57.90
2019-03-12T02:44:06.349Z,57.90
2019-03-12T02:46:54.329Z,58.00
2019-03-12T02:49:23.212Z,57.90
2019-03-12T02:51:52.255Z,57.80
2019-03-12T02:54:59.701Z,57.80
2019-03-12T02:57:47.920Z,57.70
2019-03-12T03:00:20.012Z,57.90
2019-03-12T03:03:07.953Z,57.70
2019-03-12T03:08:34.670Z,57.70
2019-03-12T03:11:03.313Z,57.60
2019-03-12T03:13:32.177Z,57.70
2019-03-12T03:16:00.784Z,57.80
2019-03-12T03:18:48.695Z,57.60
2019-03-12T03:21:36.756Z,57.50
2019-03-12T03:24:05.598Z,57.50
2019-03-12T03:26:53.555Z,57.50
2019-03-12T03:29:41.504Z,57.40
2019-03-12T03:32:29.479Z,57.60
2019-03-12T03:34:58.589Z,57.30
2019-03-12T03:37:46.545Z,57.40
2019-03-12T03:40:27.183Z,57.30
2019-03-12T03:42:55.978Z,57.20
2019-03-12T03:45:43.950Z,57.40
2019-03-12T03:48:12.537Z,57.30
2019-03-12T03:50:41.381Z,57.30
2019-03-12T03:53:29.606Z,57.30
2019-03-12T03:56:17.989Z,57.20
2019-03-12T03:58:46.599Z,57.30
2019-03-12T04:01:34.920Z,57.30
2019-03-12T04:04:22.917Z,57.30
2019-03-12T04:07:10.872Z,57.40
2019-03-12T04:09:59.160Z,57.20
2019-03-12T04:12:28.090Z,57.20
2019-03-12T04:15:16.387Z,57.30
2019-03-12T04:18:04.343Z,57.20
2019-03-12T04:20:32.944Z,57.10
2019-03-12T04:23:01.549Z,57.20
2019-03-12T04:25:49.510Z,57.20
2019-03-12T04:28:37.504Z,57.10
2019-03-12T04:31:06.446Z,57.20
2019-03-12T04:34:13.718Z,57.10
2019-03-12T04:37:01.837Z,57.20
2019-03-12T04:39:49.888Z,57.30
2019-03-12T04:42:18.903Z,57.40
2019-03-12T04:45:07.796Z,57.40
2019-03-12T04:47:36.621Z,57.20
2019-03-12T04:50:24.544Z,57.20
2019-03-12T04:53:12.492Z,57.10
2019-03-12T04:55:41.437Z,57.20
2019-03-12T04:58:29.643Z,57.20
2019-03-12T05:00:58.223Z,57.20
2019-03-12T05:03:47.940Z,57.30
2019-03-12T05:06:35.887Z,57.20
2019-03-12T05:09:23.899Z,57.30
2019-03-12T05:12:11.824Z,57.20
2019-03-12T05:14:45.327Z,57.10
2019-03-12T05:17:33.730Z,57.40
2019-03-12T05:20:02.704Z,57.40
2019-03-12T05:22:31.443Z,57.40
2019-03-12T05:25:19.652Z,57.40
2019-03-12T05:27:48.524Z,57.20
2019-03-12T05:30:36.545Z,57.30
2019-03-12T05:33:07.688Z,57.30
2019-03-12T05:35:36.360Z,57.10
2019-03-12T05:38:04.978Z,57.20
2019-03-12T05:40:46.380Z,57.20
2019-03-12T05:43:15.259Z,57.20
2019-03-12T05:46:03.228Z,57.30
2019-03-12T05:48:31.819Z,57.20
2019-03-12T05:51:00.420Z,57.10
2019-03-12T05:53:49.417Z,57.10
2019-03-12T05:56:18.025Z,57.00
2019-03-12T05:58:46.624Z,56.90
2019-03-12T06:01:15.662Z,57.00
2019-03-12T06:03:44.239Z,56.90
2019-03-12T06:06:32.214Z,56.90
2019-03-12T06:09:00.789Z,56.90
2019-03-12T06:11:48.965Z,56.90
2019-03-12T06:14:17.648Z,57.10
2019-03-12T06:16:46.247Z,57.00
2019-03-12T06:19:14.868Z,57.00
2019-03-12T06:21:43.696Z,57.00
2019-03-12T06:24:12.957Z,57.00
2019-03-12T06:27:01.149Z,57.00
2019-03-12T06:29:49.105Z,57.00
2019-03-12T06:32:24.929Z,57.00
2019-03-12T06:35:12.653Z,56.90
2019-03-12T06:38:19.916Z,56.70
2019-03-12T06:41:26.979Z,56.70
2019-03-12T06:44:02.683Z,56.80
2019-03-12T06:46:58.689Z,56.70
2019-03-12T06:50:06.055Z,56.70
2019-03-12T06:53:13.069Z,56.60
2019-03-12T06:56:20.424Z,56.60
2019-03-12T06:59:27.413Z,56.60
2019-03-12T07:02:34.470Z,56.60
2019-03-12T07:05:41.730Z,56.80
2019-03-12T07:08:48.836Z,56.40
2019-03-12T07:11:40.743Z,56.30
2019-03-12T07:14:48.067Z,56.40
2019-03-12T07:17:55.114Z,56.40
2019-03-12T07:21:10.842Z,56.20
2019-03-12T07:23:55.756Z,56.20
2019-03-12T07:27:02.793Z,56.30
2019-03-12T07:29:38.363Z,56.30
2019-03-12T07:35:52.144Z,56.70
2019-03-12T07:38:40.374Z,56.20
2019-03-12T07:41:32.176Z,56.00
2019-03-12T07:44:29.210Z,55.90
2019-03-12T07:47:18.013Z,55.80
2019-03-12T07:50:06.098Z,56.00
2019-03-12T07:52:53.897Z,55.90
2019-03-12T07:56:00.966Z,56.10
2019-03-12T07:58:46.124Z,56.10
2019-03-12T08:01:53.362Z,56.20
2019-03-12T08:04:43.501Z,56.40
2019-03-12T08:07:30.566Z,56.40
2019-03-12T08:10:23.344Z,56.50
2019-03-12T08:13:30.382Z,56.40
2019-03-12T08:16:24.072Z,56.60
2019-03-12T08:19:11.762Z,56.40
2019-03-12T08:22:18.780Z,56.90
2019-03-12T08:25:26.070Z,56.40
2019-03-12T08:28:20.096Z,56.30
2019-03-12T08:31:08.038Z,56.40
2019-03-12T08:34:15.060Z,56.50
2019-03-12T08:37:22.106Z,56.40
2019-03-12T08:40:06.390Z,56.20
2019-03-12T08:45:48.912Z,56.30
2019-03-12T08:48:55.053Z,56.20
2019-03-12T08:51:48.968Z,56.20
2019-03-12T08:54:36.799Z,56.20
2019-03-12T08:57:24.904Z,56.30
2019-03-12T09:00:12.844Z,56.30
2019-03-12T09:03:00.548Z,56.40
2019-03-12T09:06:07.842Z,56.40
2019-03-12T09:09:14.881Z,56.40
2019-03-12T09:12:21.957Z,56.40
2019-03-12T09:15:28.973Z,56.10
2019-03-12T09:18:36.234Z,56.10
2019-03-12T09:21:43.254Z,56.10
2019-03-12T09:24:50.545Z,56.00
2019-03-12T09:27:58.267Z,56.30
2019-03-12T09:31:05.334Z,56.80
2019-03-12T09:34:12.706Z,56.10
2019-03-12T09:37:02.688Z,55.90
2019-03-12T09:40:09.185Z,55.90
2019-03-12T09:42:51.896Z,55.70
2019-03-12T09:45:38.876Z,55.60
2019-03-12T09:48:45.876Z,55.40
2019-03-12T09:51:52.919Z,55.20
2019-03-12T09:54:49.166Z,55.20
2019-03-12T09:57:24.232Z,55.10
2019-03-12T10:00:15.296Z,55.00
2019-03-12T10:03:16.123Z,54.60
2019-03-12T10:06:23.101Z,54.60
2019-03-12T10:09:31.669Z,54.50
2019-03-12T10:12:38.736Z,54.50
2019-03-12T10:15:45.790Z,54.40
2019-03-12T10:18:53.038Z,54.50
2019-03-12T10:22:00.317Z,54.50
2019-03-12T10:24:46.861Z,54.40
2019-03-12T10:27:34.245Z,54.30
2019-03-12T10:30:28.073Z,54.20
2019-03-12T10:33:35.326Z,54.20
2019-03-12T10:36:14.284Z,54.00
2019-03-12T10:39:28.023Z,54.00
2019-03-12T10:42:12.096Z,53.90
2019-03-12T10:45:02.299Z,53.90
2019-03-12T10:47:31.191Z,54.00
2019-03-12T10:50:19.244Z,54.00
2019-03-12T10:52:48.185Z,54.00
2019-03-12T10:55:16.815Z,54.00
2019-03-12T10:58:04.840Z,54.20
2019-03-12T11:00:52.784Z,54.20
2019-03-12T11:03:21.435Z,54.00
2019-03-12T11:05:50.086Z,54.20
2019-03-12T11:08:18.720Z,54.00
2019-03-12T11:10:47.354Z,54.00
2019-03-12T11:13:15.941Z,54.00
2019-03-12T11:15:44.549Z,53.80
2019-03-12T11:18:32.467Z,53.60
2019-03-12T11:21:20.626Z,53.60
2019-03-12T11:24:09.176Z,53.60
2019-03-12T11:29:27.327Z,53.40
2019-03-12T11:31:56.189Z,53.40
2019-03-12T11:34:24.815Z,53.20
2019-03-12T11:36:53.446Z,53.20
2019-03-12T11:39:41.432Z,53.20
2019-03-12T11:42:10.240Z,53.00
2019-03-12T11:44:38.924Z,53.00
2019-03-12T11:47:07.620Z,52.90
2019-03-12T11:49:36.266Z,52.80
2019-03-12T11:52:25.773Z,52.80
2019-03-12T11:54:54.961Z,52.60
2019-03-12T11:57:23.677Z,52.30
2019-03-12T12:03:13.465Z,52.80
2019-03-12T12:06:01.453Z,51.80
2019-03-12T12:08:49.454Z,51.90
2019-03-12T12:11:18.365Z,51.70
2019-03-12T12:13:46.966Z,51.60
2019-03-12T12:16:34.952Z,51.40
2019-03-12T12:19:22.885Z,51.40
2019-03-12T12:21:51.864Z,51.40
2019-03-12T12:24:39.832Z,51.50
2019-03-12T12:27:08.476Z,51.40
2019-03-12T12:29:56.384Z,51.30
2019-03-12T12:32:44.317Z,51.10
2019-03-12T12:35:32.232Z,51.00
2019-03-12T12:38:20.697Z,51.00
2019-03-12T12:40:49.575Z,51.00
2019-03-12T12:43:37.592Z,51.00
2019-03-12T12:46:18.450Z,51.00
2019-03-12T12:48:47.080Z,51.10
2019-03-12T12:51:15.936Z,50.80
2019-03-12T12:53:44.780Z,50.70
2019-03-12T12:56:32.695Z,50.60
2019-03-12T12:59:20.603Z,50.60
2019-03-12T13:01:49.197Z,50.60
2019-03-12T13:04:37.396Z,50.60
2019-03-12T13:07:26.725Z,50.30
2019-03-12T13:10:15.988Z,50.20
2019-03-12T13:12:46.442Z,50.30
2019-03-12T13:15:16.067Z,50.40
2019-03-12T13:17:44.688Z,50.20
2019-03-12T13:20:32.638Z,50.10
2019-03-12T13:23:01.552Z,50.00
2019-03-12T13:25:30.392Z,49.80
2019-03-12T13:28:18.666Z,49.90
2019-03-12T13:30:47.349Z,49.40
2019-03-12T13:33:15.943Z,49.30
2019-03-12T13:35:44.552Z,49.40
2019-03-12T13:38:13.392Z,49.50
2019-03-12T13:40:42.042Z,49.60
2019-03-12T13:43:10.674Z,49.60
2019-03-12T13:45:39.273Z,49.70
2019-03-12T13:48:07.880Z,49.60
2019-03-12T13:50:55.861Z,49.60
2019-03-12T13:53:43.813Z,49.40
2019-03-12T13:56:12.413Z,49.50
2019-03-12T13:59:00.505Z,49.40
2019-03-12T14:01:48.417Z,49.20
2019-03-12T14:04:17.052Z,49.10
2019-03-12T14:06:45.643Z,48.80
2019-03-12T14:09:14.228Z,48.80
2019-03-12T14:11:42.797Z,48.80
2019-03-12T14:14:11.391Z,48.90
2019-03-12T14:16:40.271Z,48.70
2019-03-12T14:19:28.194Z,48.70
2019-03-12T14:22:16.120Z,48.60
2019-03-12T14:25:04.249Z,48.60
2019-03-12T14:27:52.177Z,48.50
2019-03-12T14:30:40.412Z,48.50
2019-03-12T14:33:31.583Z,48.30
2019-03-12T14:36:19.572Z,48.10
2019-03-12T14:39:07.512Z,48.10
2019-03-12T14:41:36.093Z,48.10
2019-03-12T14:44:19.023Z,48.10
2019-03-12T14:46:49.953Z,48.00
2019-03-12T14:49:33.703Z,47.90
2019-03-12T14:52:13.034Z,47.90
2019-03-12T14:54:41.689Z,47.90
2019-03-12T14:57:10.365Z,48.00
2019-03-12T14:59:39.191Z,48.00
2019-03-12T15:02:07.795Z,47.40
2019-03-12T15:04:55.822Z,47.40
2019-03-12T15:07:24.401Z,47.20
2019-03-12T15:09:53.041Z,47.20
2019-03-12T15:12:21.616Z,47.20
2019-03-12T15:15:09.569Z,47.00
2019-03-12T15:17:38.211Z,46.80
2019-03-12T15:20:07.221Z,46.70
2019-03-12T15:22:35.839Z,46.80
2019-03-12T15:25:04.593Z,46.70
2019-03-12T15:27:33.223Z,46.60
2019-03-12T15:30:01.855Z,46.50
2019-03-12T15:32:30.788Z,46.50
2019-03-12T15:35:18.746Z,46.30
2019-03-12T15:37:47.377Z,46.00
2019-03-12T15:40:15.984Z,46.10
2019-03-12T15:42:44.631Z,45.90
2019-03-12T15:45:13.683Z,45.80
2019-03-12T15:47:42.320Z,45.60
2019-03-12T15:50:30.399Z,45.50
2019-03-12T15:53:18.565Z,45.50
2019-03-12T15:55:47.460Z,45.50
2019-03-12T15:58:16.065Z,45.40
2019-03-12T16:01:04.005Z,45.30
2019-03-12T16:03:52.248Z,45.20
2019-03-12T16:06:20.948Z,45.30
2019-03-12T16:09:09.149Z,45.20
2019-03-12T16:11:37.836Z,45.10
2019-03-12T16:14:25.808Z,45.10
2019-03-12T16:17:13.740Z,45.20
2019-03-12T16:20:01.676Z,45.10
2019-03-12T16:22:49.661Z,44.90
2019-03-12T16:25:18.328Z,44.80
2019-03-12T16:27:46.933Z,44.70
2019-03-12T16:30:15.584Z,44.70
2019-03-12T16:33:03.517Z,44.80
2019-03-12T16:35:51.559Z,44.70
2019-03-12T16:38:20.188Z,44.70
2019-03-12T16:41:08.207Z,44.80
2019-03-12T16:43:56.225Z,44.80
2019-03-12T16:46:36.948Z,44.80
2019-03-12T16:49:05.817Z,44.80
2019-03-12T16:51:34.518Z,44.60
2019-03-12T16:54:05.425Z,44.60
2019-03-12T16:56:53.012Z,44.50
2019-03-12T16:59:40.940Z,44.40
2019-03-12T17:02:28.974Z,44.40
2019-03-12T17:04:57.572Z,44.40
2019-03-12T17:07:26.673Z,44.50
2019-03-12T17:09:55.817Z,44.30
2019-03-12T17:12:24.453Z,44.50
2019-03-12T17:15:12.621Z,44.50
2019-03-12T17:18:00.586Z,44.50
2019-03-12T17:20:29.199Z,44.50
2019-03-12T17:23:17.119Z,44.50
2019-03-12T17:25:45.731Z,44.00
2019-03-12T17:28:14.576Z,44.50
2019-03-12T17:31:02.496Z,44.40
2019-03-12T17:33:50.392Z,44.10
2019-03-12T17:36:38.320Z,44.30
2019-03-12T17:39:26.561Z,44.40
2019-03-12T17:42:01.942Z,44.50
2019-03-12T17:44:30.654Z,44.30
2019-03-12T17:47:00.185Z,44.30
2019-03-12T17:49:29.422Z,44.30
2019-03-12T17:52:17.372Z,44.20
2019-03-12T17:54:46.314Z,44.20
2019-03-12T17:57:34.351Z,44.30
2019-03-12T18:02:58.585Z,44.50
2019-03-12T18:05:46.495Z,44.60
2019-03-12T18:08:34.787Z,44.60
2019-03-12T18:11:22.799Z,44.70
2019-03-12T18:13:51.542Z,44.70
2019-03-12T18:16:41.209Z,44.30
2019-03-12T18:19:09.812Z,44.40
2019-03-12T18:21:53.353Z,44.30
2019-03-12T18:24:22.272Z,44.20
2019-03-12T18:26:50.894Z,44.10
2019-03-12T18:29:19.474Z,44.20
2019-03-12T18:32:07.503Z,44.00
2019-03-12T18:34:36.172Z,44.00
2019-03-12T18:37:04.841Z,44.20
2019-03-12T18:39:52.864Z,44.30
2019-03-12T18:42:40.986Z,44.10
2019-03-12T18:45:12.025Z,44.30
2019-03-12T18:47:53.732Z,44.40
2019-03-12T18:50:34.524Z,44.40
2019-03-12T18:53:03.316Z,44.30
2019-03-12T18:55:59.133Z,44.20
2019-03-12T18:58:27.758Z,44.30
2019-03-12T19:01:16.264Z,44.10
2019-03-12T19:04:04.495Z,44.10
2019-03-12T19:06:52.659Z,43.80
2019-03-12T19:09:40.683Z,43.70
2019-03-12T19:12:09.305Z,43.70
2019-03-12T19:14:37.979Z,43.60
2019-03-12T19:17:06.744Z,43.60
2019-03-12T19:19:54.695Z,43.60
2019-03-12T19:22:42.608Z,43.70
2019-03-12T19:25:11.348Z,43.80
2019-03-12T19:28:00.523Z,43.70
2019-03-12T19:30:29.950Z,43.60
2019-03-12T19:33:18.016Z,43.70
2019-03-12T19:36:06.335Z,43.70
2019-03-12T19:38:54.525Z,43.70
2019-03-12T19:41:43.002Z,43.50
2019-03-12T19:44:30.936Z,43.40
2019-03-12T19:46:59.992Z,43.50
2019-03-12T19:49:41.297Z,43.50
2019-03-12T19:52:10.021Z,43.60
2019-03-12T19:54:57.988Z,43.50
2019-03-12T19:57:45.963Z,43.60
2019-03-12T20:00:16.333Z,43.50
2019-03-12T20:03:11.843Z,43.70
2019-03-12T20:05:34.616Z,43.60
2019-03-12T20:08:22.580Z,43.70
2019-03-12T20:11:16.108Z,43.70
2019-03-12T20:14:23.840Z,44.00
2019-03-12T20:17:31.147Z,44.20
2019-03-12T20:20:38.413Z,44.50
2019-03-12T20:23:38.420Z,44.90
2019-03-12T20:26:44.053Z,45.30
2019-03-12T20:29:38.671Z,45.50
2019-03-12T20:32:52.209Z,45.80
2019-03-12T20:35:59.746Z,45.90
2019-03-12T20:39:05.817Z,45.90
2019-03-12T20:42:13.257Z,46.20
2019-03-12T20:45:20.461Z,46.40
2019-03-12T20:48:27.672Z,46.40
2019-03-12T20:51:34.905Z,46.60
2019-03-12T20:54:42.136Z,46.80
2019-03-12T20:57:49.364Z,46.90
2019-03-12T21:00:55.667Z,47.10
2019-03-12T21:03:50.005Z,47.20
2019-03-12T21:06:57.235Z,47.50
2019-03-12T21:10:04.436Z,47.50
2019-03-12T21:13:11.908Z,47.50
2019-03-12T21:16:19.214Z,47.60
2019-03-12T21:19:44.347Z,47.60
2019-03-12T21:22:36.337Z,47.70
2019-03-12T21:25:44.113Z,47.80
2019-03-12T21:28:41.571Z,47.90
2019-03-12T21:31:29.806Z,48.10
2019-03-12T21:33:58.736Z,48.20
2019-03-12T21:36:30.830Z,48.20
2019-03-12T21:39:17.299Z,48.20
2019-03-12T21:41:45.984Z,48.30
2019-03-12T21:44:34.054Z,49.20
2019-03-12T21:47:03.022Z,48.60
2019-03-12T21:52:30.493Z,48.70
2019-03-12T21:54:59.079Z,48.70
2019-03-12T21:57:27.676Z,48.80
2019-03-12T22:00:15.684Z,48.80
2019-03-12T22:03:03.700Z,49.00
2019-03-12T22:05:51.592Z,48.90
2019-03-12T22:08:39.543Z,48.90
2019-03-12T22:11:08.196Z,48.70
2019-03-12T22:13:56.330Z,48.80
2019-03-12T22:16:25.008Z,48.80
2019-03-12T22:18:53.637Z,48.80
2019-03-12T22:21:29.576Z,49.00
2019-03-12T22:24:05.573Z,49.20
2019-03-12T22:27:06.438Z,49.10
2019-03-12T22:29:07.691Z,49.20
2019-03-12T22:31:55.783Z,49.50
2019-03-12T22:37:13.948Z,49.90
2019-03-12T22:39:45.748Z,50.10
2019-03-12T22:42:14.371Z,50.20
2019-03-12T22:47:50.888Z,50.60
2019-03-12T22:50:19.503Z,50.60
2019-03-12T22:52:48.344Z,50.70
2019-03-12T22:55:36.333Z,50.80
2019-03-12T22:58:24.594Z,50.80
2019-03-12T23:01:12.727Z,50.80
2019-03-12T23:03:41.614Z,51.00
2019-03-12T23:06:29.769Z,51.10
2019-03-12T23:08:58.349Z,51.10
2019-03-12T23:11:46.463Z,51.20
2019-03-12T23:14:34.889Z,51.20
2019-03-12T23:17:03.788Z,51.20
2019-03-12T23:19:51.750Z,51.20
2019-03-12T23:22:20.504Z,51.20
2019-03-12T23:24:49.171Z,51.40
2019-03-12T23:27:17.859Z,51.50
2019-03-12T23:30:06.757Z,51.60
2019-03-12T23:32:54.713Z,51.60
2019-03-12T23:35:43.153Z,51.40
2019-03-12T23:38:11.878Z,51.50
2019-03-12T23:41:00.673Z,52.20
2019-03-12T23:43:44.298Z,51.60
2019-03-12T23:46:00.299Z,51.60
2019-03-12T23:48:29.006Z,51.60
2019-03-12T23:50:57.895Z,51.60
2019-03-12T23:53:45.967Z,51.60
2019-03-12T23:56:34.203Z,51.70
2019-03-12T23:59:22.503Z,51.70
